createdAt,value
2018-07-12T00:00:15.365Z,38.20
2018-07-12T00:02:43.973Z,35.17
2018-07-12T00:05:12.751Z,35.33
2018-07-12T00:07:42.245Z,36.20
2018-07-12T00:10:10.906Z,33.53
2018-07-12T00:12:39.477Z,36.70
2018-07-12T00:15:08.442Z,35.20
2018-07-12T00:17:37.041Z,31.87
2018-07-12T00:20:05.734Z,34.17
2018-07-12T00:22:34.533Z,34.77
2018-07-12T00:25:03.569Z,33.17
2018-07-12T00:27:32.309Z,32.30
2018-07-12T00:30:00.921Z,32.30
2018-07-12T00:32:29.825Z,34.03
2018-07-12T00:34:58.781Z,32.13
2018-07-12T00:37:27.708Z,30.67
2018-07-12T00:39:56.556Z,30.37
2018-07-12T00:42:26.293Z,33.00
2018-07-12T00:44:55.022Z,31.50
2018-07-12T00:47:23.646Z,31.07
2018-07-12T00:49:52.265Z,32.03
2018-07-12T00:52:20.874Z,34.20
2018-07-12T00:54:49.830Z,31.33
2018-07-12T00:57:18.446Z,32.00
2018-07-12T00:59:47.020Z,33.90
2018-07-12T01:02:16.133Z,33.13
2018-07-12T01:04:44.705Z,31.60
2018-07-12T01:07:13.277Z,33.60
2018-07-12T01:09:42.169Z,32.67
2018-07-12T01:12:10.785Z,35.30
2018-07-12T01:14:39.361Z,32.53
2018-07-12T01:17:07.925Z,33.17
2018-07-12T01:19:36.829Z,35.73
2018-07-12T01:22:05.425Z,33.20
2018-07-12T01:24:34.471Z,31.30
2018-07-12T01:27:03.041Z,32.37
2018-07-12T01:29:31.617Z,34.27
2018-07-12T01:32:00.544Z,31.60
2018-07-12T01:34:30.090Z,31.10
2018-07-12T01:36:58.661Z,33.13
2018-07-12T01:39:27.249Z,32.60
2018-07-12T01:41:56.277Z,32.77
2018-07-12T01:44:24.945Z,33.07
2018-07-12T01:46:53.530Z,33.57
2018-07-12T01:49:22.425Z,33.63
2018-07-12T01:51:50.993Z,33.13
2018-07-12T01:54:19.978Z,34.07
2018-07-12T01:56:48.765Z,33.13
2018-07-12T01:59:17.378Z,32.20
2018-07-12T02:01:46.153Z,31.83
2018-07-12T02:04:15.737Z,32.83
2018-07-12T02:06:44.330Z,33.77
2018-07-12T02:09:12.908Z,37.17
2018-07-12T02:11:42.088Z,38.00
2018-07-12T02:14:10.738Z,37.60
2018-07-12T02:16:39.325Z,38.03
2018-07-12T02:19:08.369Z,35.53
2018-07-12T02:21:36.941Z,33.47
2018-07-12T02:24:05.703Z,36.97
2018-07-12T02:26:34.653Z,36.43
2018-07-12T02:29:03.239Z,33.43
2018-07-12T02:31:32.457Z,36.00
2018-07-12T02:34:01.346Z,38.60
2018-07-12T02:36:30.077Z,34.97
2018-07-12T02:38:59.153Z,36.70
2018-07-12T02:41:27.967Z,35.37
2018-07-12T02:43:56.621Z,41.37
2018-07-12T02:46:25.286Z,36.77
2018-07-12T02:48:54.434Z,33.87
2018-07-12T02:51:23.041Z,34.87
2018-07-12T02:53:51.621Z,36.40
2018-07-12T02:56:20.192Z,32.37
2018-07-12T02:58:48.793Z,37.23
2018-07-12T03:01:18.205Z,36.07
2018-07-12T03:03:46.857Z,38.33
2018-07-12T03:06:15.449Z,38.37
2018-07-12T03:08:44.674Z,41.13
2018-07-12T03:11:13.249Z,38.10
2018-07-12T03:13:41.826Z,43.77
2018-07-12T03:16:11.467Z,43.00
2018-07-12T03:18:40.184Z,43.33
2018-07-12T03:21:08.829Z,43.73
2018-07-12T03:23:37.810Z,40.13
2018-07-12T03:26:06.561Z,46.40
2018-07-12T03:28:35.249Z,41.63
2018-07-12T03:31:04.294Z,44.00
2018-07-12T03:33:32.889Z,45.37
2018-07-12T03:36:01.469Z,46.53
2018-07-12T03:38:30.225Z,44.20
2018-07-12T03:40:59.092Z,50.53
2018-07-12T03:43:28.109Z,49.87
2018-07-12T03:45:56.825Z,54.23
2018-07-12T03:48:25.406Z,55.70
2018-07-12T03:50:54.409Z,53.23
2018-07-12T03:53:22.990Z,56.00
2018-07-12T03:55:51.581Z,55.07
2018-07-12T03:58:20.788Z,57.13
2018-07-12T04:00:49.385Z,62.70
2018-07-12T04:03:17.977Z,62.73
2018-07-12T04:05:47.266Z,70.53
2018-07-12T04:11:47.370Z,69.70
2018-07-12T04:14:16.120Z,73.63
2018-07-12T04:16:44.769Z,72.00
2018-07-12T04:19:13.989Z,69.80
2018-07-12T04:21:42.562Z,72.60
2018-07-12T04:24:11.335Z,74.10
2018-07-12T04:26:40.054Z,70.53
2018-07-12T04:29:08.673Z,70.17
2018-07-12T04:31:37.686Z,76.93
2018-07-12T04:34:06.273Z,66.77
2018-07-12T04:36:34.987Z,77.67
2018-07-12T04:39:04.241Z,76.60
2018-07-12T04:41:33.158Z,74.77
2018-07-12T04:44:01.873Z,73.23
2018-07-12T04:46:31.313Z,73.97
2018-07-12T04:48:59.869Z,65.53
2018-07-12T04:51:28.551Z,68.67
2018-07-12T04:53:57.153Z,67.93
2018-07-12T04:56:26.089Z,71.20
2018-07-12T04:58:54.680Z,69.13
2018-07-12T05:01:23.257Z,65.47
2018-07-12T05:03:51.916Z,65.83
2018-07-12T05:06:20.601Z,59.87
2018-07-12T05:08:49.462Z,62.50
2018-07-12T05:11:21.231Z,55.63
2018-07-12T05:13:50.913Z,51.17
2018-07-12T05:16:19.820Z,49.20
2018-07-12T05:18:48.968Z,48.00
2018-07-12T05:21:17.673Z,49.47
2018-07-12T05:23:46.602Z,45.57
2018-07-12T05:26:15.133Z,44.17
2018-07-12T05:28:43.816Z,43.67
2018-07-12T05:31:12.838Z,40.17
2018-07-12T05:33:41.834Z,38.20
2018-07-12T05:37:21.303Z,36.67
2018-07-12T05:39:52.013Z,37.20
2018-07-12T05:42:22.670Z,34.97
2018-07-12T05:44:52.980Z,36.50
2018-07-12T05:47:24.832Z,33.60
2018-07-12T05:49:55.629Z,32.47
2018-07-12T05:52:26.194Z,30.90
2018-07-12T05:54:57.241Z,31.07
2018-07-12T05:57:28.053Z,28.70
2018-07-12T05:59:58.726Z,28.17
2018-07-12T06:02:29.737Z,28.50
2018-07-12T06:05:00.403Z,28.23
2018-07-12T06:07:56.411Z,26.07
2018-07-12T06:10:27.262Z,23.77
2018-07-12T06:12:57.989Z,23.10
2018-07-12T06:15:28.653Z,23.70
2018-07-12T06:17:59.357Z,22.37
2018-07-12T06:20:29.960Z,22.57
2018-07-12T06:23:00.990Z,19.97
2018-07-12T06:25:31.630Z,19.83
2018-07-12T06:28:02.642Z,19.40
2018-07-12T06:30:33.313Z,20.07
2018-07-12T06:33:04.553Z,22.70
2018-07-12T06:35:35.177Z,22.47
2018-07-12T06:38:06.239Z,20.37
2018-07-12T06:40:36.829Z,19.27
2018-07-12T06:43:07.363Z,21.30
2018-07-12T06:45:37.942Z,20.93
2018-07-12T06:48:11.762Z,21.03
2018-07-12T06:50:41.790Z,20.77
2018-07-12T06:53:13.091Z,21.20
2018-07-12T06:55:44.095Z,23.20
2018-07-12T06:58:14.725Z,23.10
2018-07-12T07:00:45.357Z,22.53
2018-07-12T07:03:16.430Z,20.87
2018-07-12T07:05:48.310Z,21.23
2018-07-12T07:08:20.867Z,20.13
2018-07-12T07:10:51.398Z,20.33
2018-07-12T07:13:21.971Z,19.43
2018-07-12T07:15:52.638Z,43.60
2018-07-12T07:18:24.234Z,18.97
2018-07-12T07:21:12.181Z,16.17
2018-07-12T07:23:45.181Z,17.67
2018-07-12T07:26:16.205Z,17.90
2018-07-12T07:28:46.915Z,17.10
2018-07-12T07:31:17.503Z,15.33
2018-07-12T07:33:48.032Z,14.77
2018-07-12T07:36:20.099Z,16.33
2018-07-12T07:38:50.634Z,14.53
2018-07-12T07:41:21.286Z,13.70
2018-07-12T07:43:52.627Z,14.33
2018-07-12T07:46:23.372Z,13.13
2018-07-12T07:48:54.405Z,11.03
2018-07-12T07:51:25.622Z,11.23
2018-07-12T07:53:56.458Z,10.67
2018-07-12T07:56:27.154Z,11.73
2018-07-12T07:58:58.006Z,10.60
2018-07-12T08:01:29.839Z,9.37
2018-07-12T08:04:00.607Z,8.73
2018-07-12T08:06:30.878Z,8.57
2018-07-12T08:09:01.474Z,10.23
2018-07-12T08:11:32.681Z,8.40
2018-07-12T08:14:03.587Z,7.40
2018-07-12T08:16:34.721Z,8.47
2018-07-12T08:19:05.429Z,7.87
2018-07-12T08:21:35.937Z,7.67
2018-07-12T08:24:06.736Z,7.20
2018-07-12T08:26:37.566Z,6.17
2018-07-12T08:29:10.523Z,6.77
2018-07-12T08:31:41.353Z,5.90
2018-07-12T08:34:13.286Z,6.53
2018-07-12T08:36:44.193Z,5.00
2018-07-12T08:39:15.001Z,5.47
2018-07-12T08:41:46.274Z,5.23
2018-07-12T08:44:16.803Z,5.40
2018-07-12T08:46:48.060Z,5.50
2018-07-12T08:49:19.377Z,5.07
2018-07-12T08:51:50.097Z,3.97
2018-07-12T08:54:26.979Z,4.57
2018-07-12T08:57:03.661Z,4.07
2018-07-12T08:59:34.546Z,4.00
2018-07-12T09:02:05.105Z,3.80
2018-07-12T09:04:36.086Z,4.07
2018-07-12T09:07:06.643Z,4.00
2018-07-12T09:09:37.141Z,4.33
2018-07-12T09:12:08.169Z,4.20
2018-07-12T09:14:39.925Z,5.10
2018-07-12T09:17:10.729Z,4.00
2018-07-12T09:19:41.824Z,4.20
2018-07-12T09:22:12.536Z,4.03
2018-07-12T09:24:43.433Z,3.77
2018-07-12T09:27:14.313Z,4.10
2018-07-12T09:29:45.010Z,4.07
2018-07-12T09:32:15.688Z,4.50
2018-07-12T09:34:46.452Z,3.70
2018-07-12T09:37:17.106Z,3.40
2018-07-12T09:39:47.749Z,3.60
2018-07-12T09:42:18.313Z,3.93
2018-07-12T09:44:49.305Z,4.23
2018-07-12T09:47:20.365Z,3.10
2018-07-12T09:49:51.293Z,3.00
2018-07-12T09:52:26.833Z,3.33
2018-07-12T09:54:58.185Z,3.33
2018-07-12T09:57:39.442Z,3.53
2018-07-12T10:00:10.047Z,3.03
2018-07-12T10:02:46.165Z,3.00
2018-07-12T10:07:28.610Z,3.27
2018-07-12T10:10:00.731Z,3.13
2018-07-12T10:12:41.501Z,3.23
2018-07-12T10:15:12.904Z,3.20
2018-07-12T10:17:52.188Z,3.20
2018-07-12T10:20:22.865Z,3.33
2018-07-12T10:22:56.018Z,3.20
2018-07-12T10:25:30.467Z,3.00
2018-07-12T10:28:02.789Z,3.27
2018-07-12T10:30:33.277Z,3.20
2018-07-12T10:33:05.198Z,3.10
2018-07-12T10:35:38.089Z,3.40
2018-07-12T10:38:10.683Z,2.80
2018-07-12T10:40:50.031Z,3.30
2018-07-12T10:43:21.993Z,2.80
2018-07-12T10:45:55.081Z,3.30
2018-07-12T10:48:26.147Z,2.60
2018-07-12T10:50:56.825Z,2.70
2018-07-12T10:53:27.863Z,2.70
2018-07-12T10:55:58.389Z,2.70
2018-07-12T10:58:29.000Z,2.73
2018-07-12T11:00:59.890Z,3.03
2018-07-12T11:03:30.557Z,2.50
2018-07-12T11:06:01.106Z,2.60
2018-07-12T11:08:31.723Z,2.60
2018-07-12T11:11:02.273Z,2.77
2018-07-12T11:13:43.852Z,3.17
2018-07-12T11:16:14.457Z,3.00
2018-07-12T11:18:44.989Z,2.77
2018-07-12T11:21:16.211Z,2.70
2018-07-12T11:23:48.868Z,2.60
2018-07-12T11:26:20.157Z,2.97
2018-07-12T11:28:51.213Z,2.70
2018-07-12T11:31:21.873Z,2.70
2018-07-12T11:33:52.983Z,2.70
2018-07-12T11:36:23.627Z,2.50
2018-07-12T11:38:54.710Z,2.83
2018-07-12T11:41:25.274Z,2.73
2018-07-12T11:43:55.771Z,3.00
2018-07-12T11:46:26.912Z,2.50
2018-07-12T11:48:57.890Z,3.00
2018-07-12T11:51:30.667Z,2.87
2018-07-12T11:54:01.440Z,2.70
2018-07-12T11:56:31.551Z,2.80
2018-07-12T11:59:02.561Z,2.80
2018-07-12T12:01:33.184Z,2.93
2018-07-12T12:04:03.932Z,2.83
2018-07-12T12:06:34.495Z,2.60
2018-07-12T12:09:05.556Z,3.57
2018-07-12T12:11:36.098Z,3.17
2018-07-12T12:14:06.747Z,2.83
2018-07-12T12:16:37.370Z,2.97
2018-07-12T12:19:08.244Z,2.80
2018-07-12T12:21:40.240Z,2.67
2018-07-12T12:24:11.048Z,2.80
2018-07-12T12:26:41.757Z,2.70
2018-07-12T12:29:12.816Z,3.10
2018-07-12T12:31:44.932Z,3.33
2018-07-12T12:34:15.629Z,2.73
2018-07-12T12:36:48.793Z,2.53
2018-07-12T12:39:20.034Z,2.47
2018-07-12T12:41:51.447Z,2.83
2018-07-12T12:44:22.311Z,3.00
2018-07-12T12:46:52.896Z,2.60
2018-07-12T12:49:24.554Z,3.10
2018-07-12T12:51:55.390Z,3.13
2018-07-12T12:54:28.644Z,3.70
2018-07-12T12:56:59.240Z,4.07
2018-07-12T12:59:31.050Z,3.83
2018-07-12T13:02:01.626Z,3.40
2018-07-12T13:04:32.280Z,3.63
2018-07-12T13:07:03.099Z,4.10
2018-07-12T13:09:34.208Z,3.47
2018-07-12T13:12:04.743Z,3.97
2018-07-12T13:14:35.426Z,3.60
2018-07-12T13:17:06.701Z,3.60
2018-07-12T13:19:37.342Z,2.77
2018-07-12T13:22:07.837Z,3.73
2018-07-12T13:24:38.732Z,3.00
2018-07-12T13:27:09.421Z,3.67
2018-07-12T13:29:40.207Z,3.60
2018-07-12T13:32:11.270Z,3.67
2018-07-12T13:34:42.255Z,3.67
2018-07-12T13:37:13.006Z,3.40
2018-07-12T13:39:43.950Z,3.30
2018-07-12T13:42:14.522Z,3.70
2018-07-12T13:44:45.342Z,3.37
2018-07-12T13:47:16.598Z,3.57
2018-07-12T13:49:47.457Z,3.70
2018-07-12T13:52:19.808Z,4.10
2018-07-12T13:54:52.668Z,3.50
2018-07-12T13:57:24.746Z,3.70
2018-07-12T13:59:59.817Z,3.70
2018-07-12T14:02:31.008Z,3.10
2018-07-12T14:05:01.607Z,3.23
2018-07-12T14:07:32.686Z,3.50
2018-07-12T14:10:04.228Z,3.40
2018-07-12T14:12:34.876Z,3.73
2018-07-12T14:15:05.993Z,3.50
2018-07-12T14:17:36.598Z,4.10
2018-07-12T14:20:07.351Z,4.10
2018-07-12T14:22:38.437Z,4.57
2018-07-12T14:25:09.601Z,4.60
2018-07-12T14:27:40.493Z,4.17
2018-07-12T14:30:11.950Z,3.97
2018-07-12T14:32:43.611Z,3.50
2018-07-12T14:35:16.943Z,3.40
2018-07-12T14:37:47.779Z,3.33
2018-07-12T14:40:22.153Z,3.30
2018-07-12T14:42:58.240Z,3.10
2018-07-12T14:45:30.366Z,3.00
2018-07-12T14:48:01.452Z,2.60
2018-07-12T14:50:32.070Z,2.90
2018-07-12T14:53:03.616Z,3.00
2018-07-12T14:55:35.396Z,2.50
2018-07-12T14:58:06.121Z,2.83
2018-07-12T15:00:38.122Z,3.00
2018-07-12T15:03:09.823Z,2.83
2018-07-12T15:05:42.396Z,3.80
2018-07-12T15:08:15.474Z,3.57
2018-07-12T15:10:48.728Z,3.90
2018-07-12T15:13:19.351Z,3.77
2018-07-12T15:15:51.291Z,4.40
2018-07-12T15:18:22.069Z,4.20
2018-07-12T15:20:54.707Z,4.20
2018-07-12T15:23:27.641Z,4.57
2018-07-12T15:26:00.227Z,4.40
2018-07-12T15:28:31.501Z,4.13
2018-07-12T15:31:02.146Z,4.20
2018-07-12T15:33:33.295Z,4.00
2018-07-12T15:37:06.672Z,4.10
2018-07-12T15:39:37.912Z,4.20
2018-07-12T15:42:09.730Z,3.97
2018-07-12T15:44:42.264Z,4.40
2018-07-12T15:47:13.125Z,5.10
2018-07-12T15:49:44.872Z,4.60
2018-07-12T15:52:15.809Z,4.93
2018-07-12T15:54:48.035Z,5.30
2018-07-12T15:57:19.564Z,4.63
2018-07-12T15:59:51.389Z,4.97
2018-07-12T16:02:22.767Z,5.27
2018-07-12T16:04:53.385Z,4.97
2018-07-12T16:07:24.388Z,5.20
2018-07-12T16:09:55.386Z,5.10
2018-07-12T16:12:27.694Z,4.80
2018-07-12T16:14:58.365Z,5.43
2018-07-12T16:17:28.909Z,4.70
2018-07-12T16:20:00.659Z,4.37
2018-07-12T16:22:31.864Z,4.50
2018-07-12T16:25:02.582Z,4.63
2018-07-12T16:27:33.959Z,4.67
2018-07-12T16:30:06.351Z,4.37
2018-07-12T16:32:37.119Z,4.47
2018-07-12T16:35:07.696Z,4.20
2018-07-12T16:37:43.166Z,3.93
2018-07-12T16:40:14.406Z,3.73
2018-07-12T16:42:47.293Z,3.70
2018-07-12T16:45:20.079Z,3.40
2018-07-12T16:47:50.827Z,3.40
2018-07-12T16:50:22.332Z,3.97
2018-07-12T16:52:53.117Z,3.47
2018-07-12T16:55:23.829Z,3.63
2018-07-12T16:57:54.719Z,3.30
2018-07-12T17:00:25.346Z,3.10
2018-07-12T17:02:56.769Z,2.70
2018-07-12T17:05:27.303Z,2.43
2018-07-12T17:07:58.141Z,2.43
2018-07-12T17:10:29.781Z,2.80
2018-07-12T17:13:01.538Z,2.40
2018-07-12T17:15:37.677Z,2.53
2018-07-12T17:18:09.256Z,2.50
2018-07-12T17:20:40.124Z,2.70
2018-07-12T17:23:11.653Z,2.53
2018-07-12T17:25:42.920Z,2.70
2018-07-12T17:28:14.089Z,2.60
2018-07-12T17:30:45.507Z,2.73
2018-07-12T17:33:20.279Z,2.80
2018-07-12T17:35:57.628Z,2.50
2018-07-12T17:38:29.352Z,3.20
2018-07-12T17:40:59.622Z,3.40
2018-07-12T17:43:34.393Z,3.10
2018-07-12T17:46:05.109Z,3.00
2018-07-12T17:48:36.885Z,3.33
2018-07-12T17:51:07.486Z,3.17
2018-07-12T17:53:38.313Z,3.10
2018-07-12T17:56:08.933Z,3.33
2018-07-12T17:58:40.021Z,3.63
2018-07-12T18:01:10.634Z,3.03
2018-07-12T18:03:42.798Z,3.23
2018-07-12T18:06:13.942Z,3.60
2018-07-12T18:08:45.596Z,3.97
2018-07-12T18:11:16.680Z,3.40
2018-07-12T18:13:47.706Z,4.53
2018-07-12T18:16:18.295Z,3.77
2018-07-12T18:18:49.156Z,3.63
2018-07-12T18:21:19.678Z,4.23
2018-07-12T18:23:51.305Z,4.87
2018-07-12T18:26:21.854Z,4.57
2018-07-12T18:28:53.388Z,4.90
2018-07-12T18:31:24.065Z,5.10
2018-07-12T18:33:55.537Z,5.90
2018-07-12T18:36:26.133Z,5.70
2018-07-12T18:38:56.677Z,5.77
2018-07-12T18:41:28.113Z,5.10
2018-07-12T18:43:59.672Z,5.70
2018-07-12T18:46:33.218Z,5.93
2018-07-12T18:49:05.538Z,5.83
2018-07-12T18:51:37.782Z,6.50
2018-07-12T18:54:08.525Z,6.60
2018-07-12T18:56:39.683Z,7.00
2018-07-12T18:59:12.561Z,7.63
2018-07-12T19:01:45.661Z,7.53
2018-07-12T19:04:22.646Z,7.53
2018-07-12T19:06:55.469Z,7.50
2018-07-12T19:09:41.358Z,7.53
2018-07-12T19:12:12.393Z,7.63
2018-07-12T19:14:43.768Z,8.27
2018-07-12T19:17:14.314Z,8.93
2018-07-12T19:19:45.353Z,9.00
2018-07-12T19:22:15.910Z,11.17
2018-07-12T19:24:46.990Z,10.43
2018-07-12T19:27:17.607Z,10.70
2018-07-12T19:29:48.351Z,11.87
2018-07-12T19:32:18.876Z,11.70
2018-07-12T19:34:49.794Z,13.07
2018-07-12T19:37:20.726Z,12.07
2018-07-12T19:39:51.298Z,12.07
2018-07-12T19:42:21.833Z,13.63
2018-07-12T19:44:52.553Z,13.63
2018-07-12T19:47:23.229Z,14.43
2018-07-12T19:49:54.244Z,13.87
2018-07-12T19:52:25.104Z,14.17
2018-07-12T19:54:56.816Z,14.27
2018-07-12T19:57:27.413Z,14.27
2018-07-12T19:59:58.292Z,13.63
2018-07-12T20:02:32.592Z,14.23
2018-07-12T20:05:03.377Z,14.03
2018-07-12T20:07:33.957Z,14.43
2018-07-12T20:10:05.300Z,14.90
2018-07-12T20:12:35.835Z,14.80
2018-07-12T20:15:06.677Z,15.93
2018-07-12T20:17:37.274Z,16.70
2018-07-12T20:20:08.968Z,18.10
2018-07-12T20:22:40.222Z,17.00
2018-07-12T20:25:11.271Z,17.03
2018-07-12T20:27:42.853Z,17.73
2018-07-12T20:30:14.785Z,16.93
2018-07-12T20:32:46.780Z,18.03
2018-07-12T20:35:17.875Z,18.47
2018-07-12T20:37:50.400Z,17.10
2018-07-12T20:40:23.181Z,17.47
2018-07-12T20:42:53.817Z,19.20
2018-07-12T20:45:24.557Z,20.60
2018-07-12T20:47:55.526Z,20.40
2018-07-12T20:50:26.285Z,19.80
2018-07-12T20:52:56.833Z,20.47
2018-07-12T20:55:28.587Z,22.37
2018-07-12T20:57:59.821Z,23.00
2018-07-12T21:00:30.970Z,23.30
2018-07-12T21:03:02.075Z,22.50
2018-07-12T21:05:32.676Z,22.73
2018-07-12T21:08:03.307Z,21.87
2018-07-12T21:10:34.482Z,23.43
2018-07-12T21:13:05.085Z,22.10
2018-07-12T21:15:35.726Z,21.50
2018-07-12T21:18:06.822Z,20.30
2018-07-12T21:20:37.557Z,19.17
2018-07-12T21:23:08.659Z,18.13
2018-07-12T21:25:40.018Z,17.90
2018-07-12T21:28:10.586Z,16.93
2018-07-12T21:30:41.125Z,17.93
2018-07-12T21:33:12.150Z,17.87
2018-07-12T21:35:42.781Z,17.13
2018-07-12T21:38:13.334Z,17.57
2018-07-12T21:40:44.473Z,18.13
2018-07-12T21:43:14.981Z,19.30
2018-07-12T21:45:45.853Z,18.33
2018-07-12T21:48:16.806Z,17.77
2018-07-12T21:50:47.684Z,18.17
2018-07-12T21:53:18.503Z,17.63
2018-07-12T21:55:49.665Z,18.67
2018-07-12T21:58:20.257Z,17.87
2018-07-12T22:00:50.936Z,18.33
2018-07-12T22:03:22.230Z,18.67
2018-07-12T22:05:52.972Z,18.43
2018-07-12T22:08:24.665Z,18.83
2018-07-12T22:10:57.362Z,18.57
2018-07-12T22:13:28.913Z,18.77
2018-07-12T22:15:59.553Z,19.27
2018-07-12T22:18:30.532Z,19.43
2018-07-12T22:21:01.465Z,17.87
2018-07-12T22:23:32.029Z,20.53
2018-07-12T22:26:03.252Z,19.10
2018-07-12T22:28:33.817Z,19.40
2018-07-12T22:31:04.385Z,18.20
2018-07-12T22:33:35.425Z,19.63
2018-07-12T22:36:06.233Z,19.07
2018-07-12T22:38:36.837Z,19.27
2018-07-12T22:41:07.980Z,18.27
2018-07-12T22:43:38.526Z,17.70
2018-07-12T22:46:09.392Z,18.47
2018-07-12T22:48:40.559Z,17.67
2018-07-12T22:51:11.338Z,18.10
2018-07-12T22:53:41.904Z,17.07
2018-07-12T22:56:12.993Z,16.63
2018-07-12T22:58:43.715Z,17.30
2018-07-12T23:01:14.385Z,17.47
2018-07-12T23:03:46.369Z,16.53
2018-07-12T23:06:16.926Z,16.97
2018-07-12T23:08:49.800Z,16.53
2018-07-12T23:11:20.825Z,18.20
2018-07-12T23:13:51.401Z,16.93
2018-07-12T23:16:22.337Z,17.53
2018-07-12T23:18:52.849Z,18.40
2018-07-12T23:21:23.705Z,19.10
2018-07-12T23:23:54.281Z,16.80
2018-07-12T23:26:25.485Z,19.40
2018-07-12T23:28:56.009Z,18.27
2018-07-12T23:31:26.573Z,18.97
2018-07-12T23:33:57.533Z,19.50
2018-07-12T23:36:28.057Z,18.90
2018-07-12T23:38:58.714Z,18.13
2018-07-12T23:41:30.126Z,17.80
2018-07-12T23:44:00.676Z,19.40
2018-07-12T23:46:31.662Z,18.40
2018-07-12T23:49:02.861Z,18.43
2018-07-12T23:51:34.003Z,19.17
2018-07-12T23:54:04.701Z,18.77
2018-07-12T23:56:35.849Z,18.80
2018-07-12T23:59:06.513Z,18.83
